SU1248 / VP-BRF 7700 Squawk Report (26th of March, 2020)

Aircraft B738 Reg No. VP-BRF Age 7 years old
Model 737 Jet engines 2 First flight 10-05-13
Registered 25-09-13 Rollout N/A Delivered 25-09-13
Construction No. 41195 Line No. 4590 Series 8LJ
ADSHEX 4242DC Airline name Aeroflot Russian Airlines Owner Avia Capital Services
Airfield based Moscow-Sheremetyevo~Moscow~RA First tracked N/A

Flight history for VP-BRF

Route Flight No Date Playback
Sochi (AER) - Sheremetyevo (SVO) SU1117 2020-04-12 14:02:00
Sheremetyevo (SVO) - Sochi (AER) SU1116 2020-04-12 09:15:00
Gumrak (VOG) - Sheremetyevo (SVO) SU1759 2020-04-10 11:25:00
Sheremetyevo (SVO) - Gumrak (VOG) SU1758 2020-04-10 08:35:00
Emelyanovo (KJA) - Sheremetyevo (SVO) SU1487 2020-04-09 15:53:00
Sheremetyevo (SVO) - Emelyanovo (KJA) SU1486 2020-04-09 13:51:00
Pashkovskiy (KRR) - Sheremetyevo (SVO) SU1105 2020-04-09 04:38:00
Sheremetyevo (SVO) - Pashkovskiy (KRR) SU1104 2020-04-08 15:13:00
Sochi (AER) - Sheremetyevo (SVO) SU1741 2020-03-29 21:06:00
Sheremetyevo (SVO) - Sochi (AER) SU1740 2020-03-29 18:46:00
Emelyanovo (KJA) - Sheremetyevo (SVO) SU1485 2020-03-29 14:59:00
Sheremetyevo (SVO) - Emelyanovo (KJA) SU1484 2020-03-28 00:25:00
Koltsovo (SVX) - Sheremetyevo (SVO) SU1403 2020-03-27 15:58:00
Sheremetyevo (SVO) - Koltsovo (SVX) SU1402 2020-03-27 12:17:00
Tolmachevo (OVB) - Sheremetyevo (SVO) SU1307 2020-03-27 07:34:00
Sheremetyevo (SVO) - Tolmachevo (OVB) SU1306 2020-03-27 03:13:00
Orenburg (REN) - Sheremetyevo (SVO) SU1249 2020-03-26 19:21:00
Sheremetyevo (SVO) - Orenburg (REN) SU1248 2020-03-26 14:11:00
Emelyanovo (KJA) - Sheremetyevo (SVO) SU1485 2020-03-26 07:43:00
Sheremetyevo (SVO) - Emelyanovo (KJA) SU1484 2020-03-25 00:31:00
Time Lat Lon Altitude Heading Speed Vertical Rate
2020-03-26 14:10:30 GMT 52.709423 53.212360 28,175 119 425 -2176
2020-03-26 14:10:20 GMT 52.717712 53.188248 28,475 119 428 -2176
2020-03-26 14:10:10 GMT 52.727280 53.160400 28,825 119 431 -2112
2020-03-26 14:10:01 GMT 52.737625 53.130341 29,200 119 434 -2112
2020-03-26 14:09:49 GMT 52.748108 53.099823 29,550 119 437 -1856
2020-03-26 14:09:40 GMT 52.757538 53.072205 29,800 119 440 -1024
2020-03-26 14:09:30 GMT 52.767975 53.041306 29,975 119 444 -960
2020-03-26 14:09:20 GMT 52.778046 53.011475 30,150 119 446 -1088
2020-03-26 14:09:09 GMT 52.788666 52.979965 30,325 119 447 -1024
2020-03-26 14:08:57 GMT 52.800613 52.944870 30,525 119 449 -1088
2020-03-26 14:08:49 GMT 52.809906 52.917328 30,700 119 450 -1088
2020-03-26 14:08:36 GMT 52.821030 52.884293 30,900 119 452 -1024
2020-03-26 14:08:27 GMT 52.830276 52.856827 31,000 119 453 -64
2020-03-26 14:08:06 GMT 52.852478 52.790955 31,000 119 453 -64
2020-03-26 14:07:56 GMT 52.862114 52.762314 31,000 118 452 64
2020-03-26 14:07:45 GMT 52.874542 52.725193 31,000 118 452 -64
2020-03-26 14:07:34 GMT 52.885620 52.692108 31,000 118 452 64
2020-03-26 14:07:26 GMT 52.892838 52.670498 31,000 118 452 -128
2020-03-26 14:07:13 GMT 52.905872 52.631496 31,000 118 452 64
2020-03-26 14:07:06 GMT 52.913742 52.607952 31,000 118 452 64
2020-03-26 14:06:21 GMT 52.958057 52.474392 31,000 118 452 0
2020-03-26 14:06:11 GMT 52.967976 52.444412 31,000 118 452 64
2020-03-26 14:05:42 GMT 52.996536 52.358017 31,000 118 452 -64
2020-03-26 14:05:32 GMT 53.006611 52.327568 31,000 118 452 64
2020-03-26 14:05:01 GMT 53.037758 52.232929 31,000 118 452 -64
2020-03-26 14:04:52 GMT 53.048370 52.200752 31,000 118 452 64
2020-03-26 14:04:41 GMT 53.058285 52.170540 31,000 118 453 0
2020-03-26 14:04:31 GMT 53.068386 52.139778 31,000 118 454 0
2020-03-26 14:04:21 GMT 53.079002 52.107368 31,000 118 453 0
2020-03-26 14:04:11 GMT 53.089050 52.076721 31,000 118 453 -64
2020-03-26 14:04:00 GMT 53.099483 52.044823 31,000 118 453 128
2020-03-26 14:03:49 GMT 53.109833 52.013203 31,000 118 453 -64
2020-03-26 14:03:40 GMT 53.120270 51.981026 31,000 118 452 64
2020-03-26 14:03:29 GMT 53.130581 51.949417 31,000 118 452 -64
2020-03-26 14:03:24 GMT 53.134956 51.935928 31,000 118 452 0
2020-03-26 14:03:16 GMT 53.143478 51.909775 31,000 118 452 0
2020-03-26 14:03:09 GMT 53.150970 51.886730 31,000 118 452 0
2020-03-26 14:03:04 GMT 53.155441 51.872917 31,000 118 453 0
2020-03-26 14:02:58 GMT 53.161167 51.855225 31,000 118 453 64
2020-03-26 14:02:55 GMT 53.163864 51.846905 31,000 118 453 64
2020-03-26 14:02:45 GMT 53.173920 51.815838 31,000 118 453 0
2020-03-26 14:02:38 GMT 53.181461 51.792297 31,000 118 453 0
2020-03-26 14:02:34 GMT 53.184208 51.783733 31,000 118 453 0
2020-03-26 14:02:25 GMT 53.194172 51.752632 31,000 117 454 0
2020-03-26 14:02:17 GMT 53.201714 51.728886 31,000 117 454 -64
2020-03-26 14:02:14 GMT 53.204498 51.720181 31,000 117 454 0
2020-03-26 14:02:07 GMT 53.212002 51.696571 31,000 117 453 -64
2020-03-26 14:02:04 GMT 53.214432 51.689026 31,000 117 453 -64
2020-03-26 14:01:57 GMT 53.222214 51.664387 31,000 117 452 0
2020-03-26 14:01:53 GMT 53.224571 51.656826 31,000 117 453 0
2020-03-26 14:01:44 GMT 53.234951 51.623707 31,000 117 453 64
2020-03-26 14:01:33 GMT 53.244167 51.594299 31,000 117 454 -64
2020-03-26 14:01:26 GMT 53.251740 51.570293 31,000 117 454 0
2020-03-26 14:01:23 GMT 53.254395 51.561977 31,000 117 454 0
2020-03-26 14:01:15 GMT 53.262177 51.537571 31,000 118 454 0
2020-03-26 14:01:12 GMT 53.264744 51.529755 31,000 118 454 64
2020-03-26 14:01:03 GMT 53.274940 51.499058 31,000 119 456 64
2020-03-26 14:00:52 GMT 53.285797 51.467182 31,000 119 456 -128
2020-03-26 14:00:42 GMT 53.296307 51.436455 31,000 119 456 0
2020-03-26 14:00:34 GMT 53.304794 51.411545 31,000 119 456 0
2020-03-26 14:00:31 GMT 53.307434 51.403816 31,000 119 456 0
2020-03-26 14:00:24 GMT 53.315487 51.380230 31,000 119 456 0
2020-03-26 14:00:21 GMT 53.317841 51.373325 31,000 119 456 0
2020-03-26 14:00:11 GMT 53.328426 51.342262 31,000 119 457 64
2020-03-26 14:00:03 GMT 53.337132 51.316490 31,000 119 457 -64
2020-03-26 13:59:51 GMT 53.350029 51.278362 31,000 119 457 0
2020-03-26 13:59:40 GMT 53.360317 51.248070 31,000 119 457 64
2020-03-26 13:59:32 GMT 53.369255 51.221573 31,000 119 458 0
2020-03-26 13:59:29 GMT 53.371441 51.215191 31,000 119 458 0
2020-03-26 13:59:22 GMT 53.382195 51.183201 31,000 119 457 -64
2020-03-26 13:59:10 GMT 53.392319 51.153206 31,000 119 457 64
2020-03-26 13:58:59 GMT 53.403214 51.120876 31,000 119 457 0
2020-03-26 13:58:49 GMT 53.413651 51.089722 31,000 119 457 0
2020-03-26 13:58:41 GMT 53.422325 51.063969 31,000 119 458 -64
2020-03-26 13:58:38 GMT 53.424511 51.057507 31,000 119 458 -64
2020-03-26 13:58:29 GMT 53.434982 51.026157 31,000 119 458 0
2020-03-26 13:58:18 GMT 53.445786 50.993771 31,000 119 458 0
2020-03-26 13:58:08 GMT 53.456215 50.962585 31,000 119 458 64
2020-03-26 13:57:58 GMT 53.467117 50.929951 31,000 119 457 0
2020-03-26 13:57:47 GMT 53.477554 50.898796 31,000 119 457 0
2020-03-26 13:57:37 GMT 53.488358 50.866619 31,000 119 458 0
2020-03-26 13:57:29 GMT 53.496902 50.841171 31,000 119 456 0
2020-03-26 13:57:26 GMT 53.498978 50.834839 31,000 119 456 0
2020-03-26 13:57:17 GMT 53.509232 50.804314 31,000 119 456 0
2020-03-26 13:57:06 GMT 53.520081 50.771980 31,000 119 456 0
2020-03-26 13:56:56 GMT 53.530380 50.741219 31,000 119 456 0
2020-03-26 13:56:45 GMT 53.541080 50.708931 31,000 119 456 0
2020-03-26 13:56:36 GMT 53.551785 50.676861 31,000 119 455 -64
2020-03-26 13:56:24 GMT 53.563019 50.643047 31,000 119 455 64
2020-03-26 13:56:14 GMT 53.573547 50.611191 31,000 119 456 0
2020-03-26 13:56:03 GMT 53.584213 50.579014 31,000 119 456 0
2020-03-26 13:55:54 GMT 53.594707 50.547287 31,000 119 456 0
2020-03-26 13:55:43 GMT 53.605415 50.514732 31,000 119 456 0
2020-03-26 13:55:32 GMT 53.616028 50.482651 31,000 119 457 -64
2020-03-26 13:55:23 GMT 53.626503 50.450832 31,000 119 457 0
2020-03-26 13:55:12 GMT 53.636993 50.419006 31,000 118 456 0
2020-03-26 13:55:01 GMT 53.647705 50.386360 31,000 119 457 0
2020-03-26 13:54:52 GMT 53.658051 50.354973 31,000 119 457 -64
2020-03-26 13:54:41 GMT 53.668900 50.322014 31,000 119 457 0
2020-03-26 13:54:30 GMT 53.679665 50.289593 31,000 119 457 -64
2020-03-26 13:54:21 GMT 53.690044 50.258251 31,000 119 457 0
2020-03-26 13:54:10 GMT 53.700439 50.227058 31,000 119 457 64
2020-03-26 13:54:00 GMT 53.711182 50.194595 31,000 119 457 -64
2020-03-26 13:53:50 GMT 53.721634 50.163025 31,000 119 457 64
2020-03-26 13:53:39 GMT 53.732502 50.130211 31,000 119 457 0
2020-03-26 13:53:29 GMT 53.742737 50.099148 31,000 119 458 -64
2020-03-26 13:53:21 GMT 53.752007 50.070915 31,000 118 458 0
2020-03-26 13:53:08 GMT 53.764069 50.034248 31,000 118 458 0
2020-03-26 13:53:00 GMT 53.772724 50.007828 31,000 118 458 -64
2020-03-26 13:52:57 GMT 53.774864 50.001286 31,000 118 458 -64
2020-03-26 13:52:48 GMT 53.785011 49.970345 31,000 118 458 64
2020-03-26 13:52:38 GMT 53.795673 49.937870 31,000 118 458 -64
2020-03-26 13:52:27 GMT 53.806427 49.904991 31,000 118 458 0
2020-03-26 13:52:19 GMT 53.815109 49.878555 31,000 118 459 0
2020-03-26 13:52:07 GMT 53.827656 49.840206 31,000 118 459 0
2020-03-26 13:51:56 GMT 53.837906 49.808716 31,000 118 459 0
2020-03-26 13:51:48 GMT 53.846512 49.782349 31,000 118 459 0
2020-03-26 13:51:45 GMT 53.848602 49.775902 31,000 118 459 0
2020-03-26 13:51:36 GMT 53.859009 49.744053 31,000 118 459 0
2020-03-26 13:51:25 GMT 53.869766 49.711094 31,000 118 459 0
2020-03-26 13:51:17 GMT 53.880386 49.678448 31,000 118 460 0
2020-03-26 13:51:04 GMT 53.890823 49.646355 31,000 118 460 64
2020-03-26 13:50:57 GMT 53.899300 49.620316 31,000 118 459 -64
2020-03-26 13:50:54 GMT 53.901951 49.612156 31,000 118 459 -64
2020-03-26 13:50:44 GMT 53.911560 49.582317 31,000 118 459 0
2020-03-26 13:50:35 GMT 53.920387 49.555046 31,000 118 460 0
2020-03-26 13:50:32 GMT 53.923920 49.544182 31,000 118 460 -64
2020-03-26 13:50:24 GMT 53.933144 49.515621 31,000 118 460 0
2020-03-26 13:50:13 GMT 53.943237 49.484226 31,000 118 460 64
2020-03-26 13:50:05 GMT 53.951439 49.458672 31,000 118 460 64
2020-03-26 13:50:02 GMT 53.954041 49.450642 31,000 118 460 0
2020-03-26 13:49:55 GMT 53.961731 49.426548 31,000 118 460 -64
2020-03-26 13:49:52 GMT 53.964237 49.418846 31,000 118 460 0
2020-03-26 13:49:45 GMT 53.972340 49.393398 31,000 118 460 0
2020-03-26 13:49:42 GMT 53.975178 49.384514 31,000 118 460 0
2020-03-26 13:49:32 GMT 53.985031 49.353645 31,000 118 460 0
2020-03-26 13:49:22 GMT 53.995197 49.321827 31,000 118 460 0
2020-03-26 13:49:12 GMT 54.005722 49.288670 31,000 118 460 64
2020-03-26 13:49:04 GMT 54.013954 49.262856 31,000 118 460 0
2020-03-26 13:49:01 GMT 54.016376 49.255264 31,000 118 460 0
2020-03-26 13:48:50 GMT 54.026871 49.222439 31,000 118 460 64
2020-03-26 13:48:41 GMT 54.036861 49.190720 31,000 116 460 -64
2020-03-26 13:48:30 GMT 54.046143 49.156914 31,000 112 458 0
2020-03-26 13:48:23 GMT 54.054550 49.121811 31,000 111 458 0
2020-03-26 13:48:10 GMT 54.062393 49.088638 31,000 111 458 0
2020-03-26 13:47:59 GMT 54.070564 49.054195 31,000 111 457 -64
2020-03-26 13:47:51 GMT 54.076614 49.028507 31,000 111 457 64
2020-03-26 13:47:48 GMT 54.078991 49.018574 31,000 111 457 64
2020-03-26 13:47:38 GMT 54.087090 48.984241 31,000 111 457 0
2020-03-26 13:47:28 GMT 54.095215 48.949741 31,000 111 457 0
2020-03-26 13:47:17 GMT 54.103245 48.915577 31,000 111 457 64
2020-03-26 13:47:08 GMT 54.111485 48.880596 31,000 111 457 -64
2020-03-26 13:47:00 GMT 54.117096 48.856750 31,000 111 457 0
2020-03-26 13:46:57 GMT 54.119629 48.845860 31,000 111 457 0
2020-03-26 13:46:50 GMT 54.125153 48.822300 31,000 111 457 0
2020-03-26 13:46:46 GMT 54.127590 48.811852 31,000 111 457 0
2020-03-26 13:46:37 GMT 54.135681 48.777336 31,000 111 456 -64
2020-03-26 13:46:30 GMT 54.140858 48.755142 31,000 111 456 0
2020-03-26 13:46:26 GMT 54.143791 48.742458 31,000 111 456 0
2020-03-26 13:46:19 GMT 54.148911 48.720596 31,000 111 456 64
2020-03-26 13:46:16 GMT 54.151703 48.708775 31,000 111 456 64
2020-03-26 13:46:06 GMT 54.159851 48.673714 31,000 111 457 -64
2020-03-26 13:45:55 GMT 54.167950 48.638981 31,000 111 457 -64
2020-03-26 13:45:48 GMT 54.173817 48.613613 31,000 111 457 64
2020-03-26 13:45:44 GMT 54.176235 48.603271 31,000 111 457 64
2020-03-26 13:45:35 GMT 54.183609 48.571342 31,000 111 457 0
2020-03-26 13:45:27 GMT 54.188919 48.548271 31,000 111 456 -128
2020-03-26 13:45:24 GMT 54.191505 48.537033 31,000 111 456 -128
2020-03-26 13:45:17 GMT 54.196747 48.514446 31,000 111 455 0
2020-03-26 13:45:13 GMT 54.199905 48.500793 31,000 111 455 0
2020-03-26 13:45:08 GMT 54.204403 48.481293 31,000 111 455 0
2020-03-26 13:45:03 GMT 54.207474 48.467884 31,000 111 455 0
2020-03-26 13:44:57 GMT 54.212643 48.445507 31,000 111 455 64
2020-03-26 13:44:54 GMT 54.215294 48.434196 31,000 111 456 64
2020-03-26 13:44:42 GMT 54.223663 48.397915 31,000 111 457 64
2020-03-26 13:44:37 GMT 54.228241 48.378139 31,000 111 457 0
2020-03-26 13:44:27 GMT 54.236336 48.343155 31,000 111 457 -64
2020-03-26 13:44:16 GMT 54.244389 48.307934 31,000 111 456 -64
2020-03-26 13:44:06 GMT 54.252026 48.274410 31,000 111 455 0
2020-03-26 13:43:55 GMT 54.260971 48.238064 31,000 114 456 0
2020-03-26 13:43:43 GMT 54.271530 48.201790 31,000 118 458 64
2020-03-26 13:43:35 GMT 54.280746 48.174320 31,000 120 459 0
2020-03-26 13:43:15 GMT 54.302948 48.109859 31,000 120 460 0
2020-03-26 13:43:00 GMT 54.318283 48.065346 31,000 120 460 0
2020-03-26 13:42:51 GMT 54.328091 48.036888 31,000 120 461 0
2020-03-26 13:42:43 GMT 54.336376 48.012753 31,000 120 461 0
2020-03-26 13:42:34 GMT 54.347084 47.981625 31,000 120 461 0
2020-03-26 13:42:22 GMT 54.358704 47.947727 31,000 120 461 0
2020-03-26 13:42:13 GMT 54.369232 47.916870 31,000 120 462 -64
2020-03-26 13:42:02 GMT 54.380367 47.884327 31,000 120 462 0
2020-03-26 13:41:53 GMT 54.391068 47.852890 31,000 120 462 64
2020-03-26 13:41:42 GMT 54.402466 47.819447 31,000 120 462 0
2020-03-26 13:41:32 GMT 54.413132 47.788185 31,000 120 462 -64
2020-03-26 13:41:21 GMT 54.424622 47.754257 31,000 120 462 0
2020-03-26 13:41:11 GMT 54.436432 47.719440 31,000 120 462 64
2020-03-26 13:41:01 GMT 54.446659 47.689236 31,000 120 463 0
2020-03-26 13:40:51 GMT 54.457260 47.657642 31,000 119 462 -64
2020-03-26 13:40:40 GMT 54.468212 47.625069 31,000 119 462 0
2020-03-26 13:40:31 GMT 54.479187 47.592209 31,000 119 462 0
2020-03-26 13:40:20 GMT 54.490093 47.559647 31,000 119 462 0
2020-03-26 13:40:09 GMT 54.501205 47.526451 31,000 119 461 0
2020-03-26 13:39:59 GMT 54.511879 47.494560 31,000 120 461 64
2020-03-26 13:39:49 GMT 54.523041 47.461422 31,000 120 462 0
2020-03-26 13:39:39 GMT 54.533752 47.429676 31,000 120 463 -64
2020-03-26 13:39:29 GMT 54.544876 47.397038 31,000 120 462 64
2020-03-26 13:39:19 GMT 54.555862 47.364727 31,000 120 463 64
2020-03-26 13:39:08 GMT 54.567230 47.331264 31,000 120 463 -64
2020-03-26 13:38:58 GMT 54.578030 47.299473 31,000 120 463 -64
2020-03-26 13:38:48 GMT 54.589016 47.266930 31,000 120 463 0
2020-03-26 13:38:38 GMT 54.600143 47.233803 31,000 120 463 0
2020-03-26 13:38:27 GMT 54.611389 47.200417 31,000 120 464 64
2020-03-26 13:38:17 GMT 54.622009 47.168831 31,000 120 464 0
2020-03-26 13:38:06 GMT 54.633335 47.135094 31,000 120 464 0
2020-03-26 13:37:57 GMT 54.643948 47.103382 31,000 120 464 0
2020-03-26 13:37:46 GMT 54.655121 47.070175 31,000 120 464 0
2020-03-26 13:37:36 GMT 54.666340 47.036880 31,000 120 464 64
2020-03-26 13:37:25 GMT 54.677216 47.004360 31,000 120 465 -64
2020-03-26 13:37:16 GMT 54.688313 46.971214 31,000 119 465 0
2020-03-26 13:37:05 GMT 54.699112 46.938755 31,000 119 465 0
2020-03-26 13:36:54 GMT 54.710358 46.904755 31,000 119 464 0
2020-03-26 13:36:44 GMT 54.720978 46.872604 31,000 119 464 64
2020-03-26 13:36:35 GMT 54.732162 46.838547 31,000 119 465 0
2020-03-26 13:36:24 GMT 54.742966 46.805672 31,000 119 465 -64
2020-03-26 13:36:13 GMT 54.753891 46.772270 31,000 119 464 0
2020-03-26 13:36:03 GMT 54.765308 46.737255 31,000 119 464 0
2020-03-26 13:35:53 GMT 54.775131 46.707291 31,000 119 463 -64
2020-03-26 13:35:43 GMT 54.786392 46.673073 31,000 119 462 64
2020-03-26 13:35:33 GMT 54.796829 46.641243 31,000 117 463 0
2020-03-26 13:35:23 GMT 54.806973 46.606419 31,000 114 462 0
2020-03-26 13:35:11 GMT 54.816147 46.569752 31,000 111 460 0
2020-03-26 13:35:02 GMT 54.823128 46.536339 31,000 107 459 0
2020-03-26 13:34:52 GMT 54.829147 46.501087 31,000 104 458 0
2020-03-26 13:34:42 GMT 54.834812 46.464096 31,000 104 458 0
2020-03-26 13:34:31 GMT 54.840305 46.428055 31,000 104 458 0
2020-03-26 13:34:20 GMT 54.845947 46.391064 31,000 104 456 0
2020-03-26 13:34:11 GMT 54.851257 46.356003 31,000 104 456 0
2020-03-26 13:34:01 GMT 54.856876 46.319107 31,000 104 456 0
2020-03-26 13:33:50 GMT 54.862518 46.281765 31,000 104 457 0
2020-03-26 13:33:40 GMT 54.867817 46.246948 31,000 104 456 0
2020-03-26 13:33:29 GMT 54.873459 46.210030 31,000 104 456 0
2020-03-26 13:33:19 GMT 54.878990 46.173454 31,000 104 456 0
2020-03-26 13:33:09 GMT 54.884399 46.137489 31,000 104 456 64
2020-03-26 13:32:58 GMT 54.889938 46.100735 31,000 104 456 0
2020-03-26 13:32:49 GMT 54.895340 46.064945 31,000 104 457 -64
2020-03-26 13:32:38 GMT 54.900742 46.029160 31,000 104 457 0
2020-03-26 13:32:28 GMT 54.906223 45.992100 31,000 104 457 64
2020-03-26 13:32:18 GMT 54.911591 45.956055 31,000 104 458 0
2020-03-26 13:32:08 GMT 54.917175 45.918407 31,000 104 458 0
2020-03-26 13:31:57 GMT 54.922394 45.883186 31,000 104 458 0
2020-03-26 13:31:47 GMT 54.927822 45.846779 31,000 104 457 0
2020-03-26 13:31:36 GMT 54.933289 45.809998 31,000 104 457 -64
2020-03-26 13:31:27 GMT 54.938904 45.772205 31,000 104 456 0
2020-03-26 13:31:16 GMT 54.944023 45.737167 31,000 104 457 0
2020-03-26 13:31:05 GMT 54.949493 45.699734 31,000 104 456 -64
2020-03-26 13:30:55 GMT 54.954590 45.664757 31,000 104 455 64
2020-03-26 13:30:46 GMT 54.959850 45.628635 31,000 104 455 -64
2020-03-26 13:30:35 GMT 54.965286 45.591160 31,000 104 455 0
2020-03-26 13:30:24 GMT 54.970642 45.554325 31,000 104 455 0
2020-03-26 13:30:14 GMT 54.975906 45.518135 31,000 104 456 0
2020-03-26 13:30:05 GMT 54.980942 45.482994 31,000 104 456 0
2020-03-26 13:29:54 GMT 54.986343 45.445595 31,000 104 456 0
2020-03-26 13:29:43 GMT 54.991837 45.407223 31,000 104 457 0
2020-03-26 13:29:33 GMT 54.996765 45.372787 31,000 104 457 0
2020-03-26 13:29:23 GMT 55.002121 45.335751 31,000 104 458 -64
2020-03-26 13:29:12 GMT 55.007427 45.298630 31,000 104 458 0
2020-03-26 13:29:03 GMT 55.012455 45.263504 31,000 103 459 0
2020-03-26 13:28:53 GMT 55.017654 45.226833 31,000 103 459 0
2020-03-26 13:28:42 GMT 55.022930 45.189846 31,000 103 459 0
2020-03-26 13:28:31 GMT 55.028320 45.151627 31,000 103 460 0
2020-03-26 13:28:21 GMT 55.033401 45.115356 31,000 103 460 0
2020-03-26 13:28:12 GMT 55.038391 45.079731 31,000 103 461 0
2020-03-26 13:28:01 GMT 55.043785 45.041447 31,000 103 461 -64
2020-03-26 13:27:51 GMT 55.048874 45.004929 31,000 103 461 -128
2020-03-26 13:27:40 GMT 55.054092 44.967445 31,000 103 461 128
2020-03-26 13:27:31 GMT 55.059238 44.930588 31,000 103 461 -64
2020-03-26 13:27:27 GMT 55.060730 44.919765 31,000 103 461 0
2020-03-26 13:27:18 GMT 55.065990 44.881981 31,000 103 461 -64
2020-03-26 13:27:10 GMT 55.069427 44.857338 31,000 103 461 0
2020-03-26 13:27:07 GMT 55.070709 44.847969 31,000 103 460 0
2020-03-26 13:26:59 GMT 55.074646 44.819534 31,000 103 460 0
2020-03-26 13:26:56 GMT 55.076183 44.808571 31,000 103 459 0
2020-03-26 13:26:50 GMT 55.079636 44.783585 31,000 103 459 0
2020-03-26 13:26:47 GMT 55.080933 44.774364 31,000 103 459 0
2020-03-26 13:26:39 GMT 55.084808 44.746101 31,000 103 459 0
2020-03-26 13:26:36 GMT 55.086502 44.733906 31,000 103 459 0
2020-03-26 13:26:26 GMT 55.090988 44.701370 31,000 103 459 0
2020-03-26 13:26:18 GMT 55.094879 44.673157 31,000 103 459 64
2020-03-26 13:26:15 GMT 55.096344 44.662415 31,000 103 459 0
2020-03-26 13:26:09 GMT 55.099915 44.636158 31,000 103 459 -64
2020-03-26 13:26:05 GMT 55.101196 44.626789 31,000 103 459 0
2020-03-26 13:25:55 GMT 55.106167 44.590012 31,000 103 458 0
2020-03-26 13:25:46 GMT 55.111038 44.554245 31,000 103 458 0
2020-03-26 13:25:35 GMT 55.116127 44.517101 31,000 103 459 0
2020-03-26 13:25:28 GMT 55.119946 44.488636 31,000 103 459 0
2020-03-26 13:25:25 GMT 55.121109 44.480167 31,000 103 459 0
2020-03-26 13:25:17 GMT 55.124863 44.452541 31,000 103 459 -64
2020-03-26 13:25:14 GMT 55.126087 44.443275 31,000 103 459 -64
2020-03-26 13:25:05 GMT 55.130905 44.407467 31,000 103 459 64
2020-03-26 13:24:55 GMT 55.135864 44.370617 31,000 103 459 0
2020-03-26 13:24:44 GMT 55.140846 44.333164 31,000 103 459 -64
2020-03-26 13:24:34 GMT 55.145691 44.296955 31,000 103 458 -64
2020-03-26 13:24:23 GMT 55.150761 44.258923 31,000 103 458 0
2020-03-26 13:24:16 GMT 55.154617 44.230312 31,000 103 459 0
2020-03-26 13:24:13 GMT 55.155624 44.222717 31,000 103 459 64
2020-03-26 13:24:03 GMT 55.160477 44.186283 31,000 103 459 64
2020-03-26 13:23:58 GMT 55.163795 44.161209 31,000 103 459 64
2020-03-26 13:23:55 GMT 55.164505 44.155991 31,000 103 459 64
2020-03-26 13:23:50 GMT 55.168259 44.127880 31,000 102 459 0
2020-03-26 13:23:43 GMT 55.170315 44.112106 31,000 102 459 0
2020-03-26 13:23:38 GMT 55.173294 44.089798 31,000 102 459 0
2020-03-26 13:23:35 GMT 55.174438 44.080944 31,000 102 459 0
2020-03-26 13:23:22 GMT 55.180553 44.034534 31,000 102 459 0
2020-03-26 13:23:14 GMT 55.183960 44.008404 31,000 102 459 0
2020-03-26 13:23:06 GMT 55.188080 43.976978 31,000 102 459 64
2020-03-26 13:23:03 GMT 55.188934 43.970699 31,000 102 459 0
2020-03-26 13:22:54 GMT 55.193848 43.932953 31,000 102 459 0
2020-03-26 13:22:43 GMT 55.198524 43.896957 31,000 102 459 0
2020-03-26 13:22:32 GMT 55.203506 43.858875 31,000 102 459 0
2020-03-26 13:22:22 GMT 55.208130 43.823090 31,000 102 459 64
2020-03-26 13:22:13 GMT 55.212982 43.785851 31,000 102 459 -64
2020-03-26 13:22:09 GMT 55.214214 43.776272 31,000 102 459 -64
2020-03-26 13:22:02 GMT 55.217834 43.747883 31,000 102 459 0
2020-03-26 13:21:59 GMT 55.219707 43.733242 31,000 102 459 0
2020-03-26 13:21:51 GMT 55.222595 43.710640 31,000 102 458 0
2020-03-26 13:21:48 GMT 55.224243 43.697716 31,000 102 458 0
2020-03-26 13:21:39 GMT 55.229855 43.653759 31,000 102 458 -64
2020-03-26 13:21:32 GMT 55.231857 43.637863 31,000 102 457 0
2020-03-26 13:21:25 GMT 55.235779 43.606998 31,000 102 457 64
2020-03-26 13:21:21 GMT 55.236649 43.600212 31,000 102 457 64
2020-03-26 13:21:10 GMT 55.241455 43.562244 31,000 102 458 0
2020-03-26 13:21:00 GMT 55.246010 43.525917 31,000 102 458 0
2020-03-26 13:20:51 GMT 55.250793 43.488167 31,000 102 457 0
2020-03-26 13:20:43 GMT 55.254341 43.459831 31,000 102 457 0
2020-03-26 13:20:40 GMT 55.255234 43.452785 31,000 102 457 0
2020-03-26 13:20:30 GMT 55.259949 43.415142 31,000 102 457 0
2020-03-26 13:20:19 GMT 55.264801 43.376850 31,000 102 457 0
2020-03-26 13:20:10 GMT 55.269238 43.341312 31,000 102 457 0
2020-03-26 13:19:59 GMT 55.274002 43.303261 31,000 102 457 0
2020-03-26 13:19:47 GMT 55.279449 43.259151 31,000 102 457 0
2020-03-26 13:19:39 GMT 55.283016 43.230453 31,000 102 457 -64
2020-03-26 13:19:28 GMT 55.287598 43.193394 31,000 102 457 0
2020-03-26 13:19:16 GMT 55.293163 43.148472 31,000 102 457 0
2020-03-26 13:19:06 GMT 55.297577 43.112534 31,000 102 456 64
2020-03-26 13:18:54 GMT 55.302795 43.070366 31,000 102 456 0
2020-03-26 13:18:45 GMT 55.307007 43.035709 31,000 102 456 0
2020-03-26 13:18:34 GMT 55.313965 42.979080 31,000 102 456 0
2020-03-26 13:18:25 GMT 55.315796 42.964218 31,000 102 456 64
2020-03-26 13:18:16 GMT 55.320190 42.928108 31,000 102 456 0
2020-03-26 13:18:04 GMT 55.324726 42.890373 31,000 101 456 0
2020-03-26 13:17:55 GMT 55.330627 42.841347 31,000 101 456 0
2020-03-26 13:17:45 GMT 55.333248 42.819130 31,000 101 456 0
2020-03-26 13:17:33 GMT 55.339966 42.763233 31,000 101 456 0
2020-03-26 13:17:24 GMT 55.342209 42.744411 31,000 101 456 0
2020-03-26 13:17:19 GMT 55.344513 42.724998 31,000 101 456 64
2020-03-26 13:17:13 GMT 55.346886 42.705105 31,000 101 457 0
2020-03-26 13:17:09 GMT 55.349121 42.686409 31,000 101 457 0
2020-03-26 13:17:03 GMT 55.351402 42.667320 31,000 101 457 0
2020-03-26 13:16:58 GMT 55.353378 42.650539 31,000 101 457 0
2020-03-26 13:16:53 GMT 55.355686 42.631447 31,000 101 457 0
2020-03-26 13:16:44 GMT 55.360062 42.594639 31,000 101 457 0
2020-03-26 13:16:34 GMT 55.364136 42.560146 31,000 101 457 64
2020-03-26 13:16:22 GMT 55.369370 42.515675 31,000 101 457 0
2020-03-26 13:16:13 GMT 55.373142 42.483299 31,000 101 457 0
2020-03-26 13:16:02 GMT 55.377502 42.446487 31,000 101 457 0
2020-03-26 13:15:59 GMT 55.378922 42.434448 31,000 101 457 0
2020-03-26 13:15:52 GMT 55.382172 42.406727 31,000 101 457 0
2020-03-26 13:15:41 GMT 55.386475 42.369823 31,000 101 457 0
2020-03-26 13:15:30 GMT 55.390877 42.331905 31,000 101 457 0
2020-03-26 13:15:21 GMT 55.395355 42.293163 31,000 101 457 0
2020-03-26 13:15:10 GMT 55.399536 42.256996 31,000 101 457 0
2020-03-26 13:15:00 GMT 55.403961 42.218544 31,000 101 456 0
2020-03-26 13:14:52 GMT 55.407078 42.191246 31,000 101 456 0
2020-03-26 13:14:49 GMT 55.408310 42.180473 31,000 101 456 0
2020-03-26 13:14:39 GMT 55.412712 42.141808 31,000 101 456 0
2020-03-26 13:14:32 GMT 55.415543 42.116898 31,000 101 456 0
2020-03-26 13:14:28 GMT 55.416916 42.104858 31,000 101 456 0
2020-03-26 13:14:21 GMT 55.420395 42.074474 31,000 101 456 0
2020-03-26 13:14:17 GMT 55.421185 42.067234 31,000 101 456 0
2020-03-26 13:14:11 GMT 55.424068 42.042099 31,000 101 456 0
2020-03-26 13:14:08 GMT 55.425514 42.029446 31,000 101 456 0
2020-03-26 13:14:00 GMT 55.428177 42.005581 31,000 101 456 0
2020-03-26 13:13:56 GMT 55.430054 41.989182 31,000 101 456 0
2020-03-26 13:13:51 GMT 55.432262 41.969357 31,000 101 456 0
2020-03-26 13:13:47 GMT 55.434032 41.953709 31,000 101 456 -64
2020-03-26 13:13:39 GMT 55.437290 41.924992 31,000 101 456 0
2020-03-26 13:13:36 GMT 55.438362 41.915504 31,000 101 456 0
2020-03-26 13:13:29 GMT 55.441154 41.890453 31,000 101 456 0
2020-03-26 13:13:25 GMT 55.442596 41.877541 31,000 101 456 64
2020-03-26 13:13:20 GMT 55.444931 41.856747 31,000 101 456 64
2020-03-26 13:13:15 GMT 55.446835 41.839542 31,000 101 457 0
2020-03-26 13:13:08 GMT 55.449738 41.813465 31,000 101 457 0
2020-03-26 13:13:05 GMT 55.450977 41.802292 31,000 100 457 0
2020-03-26 13:12:59 GMT 55.453125 41.782837 31,000 101 457 -64
2020-03-26 13:12:55 GMT 55.455399 41.762295 31,000 101 457 0
2020-03-26 13:12:48 GMT 55.457794 41.740971 31,000 100 457 -64
2020-03-26 13:12:43 GMT 55.459625 41.724159 31,000 101 457 -64
2020-03-26 13:12:39 GMT 55.461407 41.708305 31,000 100 457 64
2020-03-26 13:12:34 GMT 55.463734 41.687195 31,000 101 457 0
2020-03-26 13:12:28 GMT 55.465576 41.670559 31,000 101 457 0
2020-03-26 13:12:23 GMT 55.467876 41.649597 31,000 100 457 0
2020-03-26 13:12:16 GMT 55.470795 41.623203 31,000 100 457 0
2020-03-26 13:12:13 GMT 55.472122 41.611134 31,000 100 457 0
2020-03-26 13:12:09 GMT 55.473602 41.597843 31,000 100 457 0
2020-03-26 13:12:02 GMT 55.476395 41.572697 31,000 100 457 0
2020-03-26 13:11:59 GMT 55.477982 41.557865 31,000 100 457 0
2020-03-26 13:11:52 GMT 55.480591 41.534229 31,000 100 456 0
2020-03-26 13:11:48 GMT 55.481747 41.523087 31,000 100 456 0
2020-03-26 13:11:40 GMT 55.484821 41.494591 31,000 100 457 0
2020-03-26 13:11:36 GMT 55.486816 41.476219 31,000 100 457 0
2020-03-26 13:11:30 GMT 55.488876 41.457241 31,000 100 457 0
2020-03-26 13:11:27 GMT 55.489929 41.447754 31,000 100 457 0
2020-03-26 13:11:17 GMT 55.493851 41.411507 31,000 100 456 0
2020-03-26 13:11:08 GMT 55.497940 41.373428 31,000 100 456 0
2020-03-26 13:11:00 GMT 55.501160 41.343700 31,000 100 456 0
2020-03-26 13:10:57 GMT 55.501968 41.336227 31,000 100 456 0
2020-03-26 13:10:48 GMT 55.505219 41.305595 31,000 100 456 0
2020-03-26 13:10:45 GMT 55.507027 41.288593 31,000 100 456 0
2020-03-26 13:10:39 GMT 55.509293 41.267647 31,000 100 456 0
2020-03-26 13:10:36 GMT 55.509888 41.262154 31,000 100 456 0
2020-03-26 13:10:33 GMT 55.511490 41.247169 31,000 100 456 0
2020-03-26 13:10:28 GMT 55.513309 41.229801 31,000 100 456 0
2020-03-26 13:10:25 GMT 55.514660 41.217098 31,000 100 456 0
2020-03-26 13:10:16 GMT 55.517872 41.187141 31,000 100 456 0
2020-03-26 13:10:13 GMT 55.518906 41.177090 31,000 100 456 0
2020-03-26 13:10:05 GMT 55.522530 41.142941 31,000 100 456 0
2020-03-26 13:09:54 GMT 55.526779 41.102600 31,000 100 456 0
2020-03-26 13:09:47 GMT 55.529465 41.077278 31,000 100 456 0
2020-03-26 13:09:44 GMT 55.530254 41.069553 31,000 100 456 0
2020-03-26 13:09:35 GMT 55.533466 41.038914 31,000 100 456 0
2020-03-26 13:09:25 GMT 55.537426 41.000202 31,000 100 456 -64
2020-03-26 13:09:22 GMT 55.541245 40.963524 31,000 100 455 64
2020-03-26 13:09:15 GMT 55.541245 40.963524 31,000 100 455 0
2020-03-26 13:09:05 GMT 55.545383 40.923641 31,000 100 455 64
2020-03-26 13:08:55 GMT 55.548889 40.889866 31,000 100 455 0
2020-03-26 13:08:52 GMT 55.550217 40.877132 31,000 100 456 0
2020-03-26 13:08:44 GMT 55.553207 40.848110 31,000 100 456 0
2020-03-26 13:08:40 GMT 55.554695 40.833523 31,000 100 456 0
2020-03-26 13:08:33 GMT 55.557117 40.809746 31,000 100 456 0
2020-03-26 13:08:28 GMT 55.558746 40.793694 31,000 100 456 0
2020-03-26 13:08:23 GMT 55.560982 40.771809 31,000 100 456 0
2020-03-26 13:08:19 GMT 55.562073 40.761356 31,000 100 456 0
2020-03-26 13:08:12 GMT 55.564865 40.733974 31,000 100 455 0
2020-03-26 13:08:08 GMT 55.566605 40.716831 31,000 100 455 0
2020-03-26 13:08:02 GMT 55.568756 40.695606 31,000 100 455 0
2020-03-26 13:07:59 GMT 55.569687 40.686321 31,000 100 455 0
2020-03-26 13:07:54 GMT 55.571827 40.665207 31,000 100 455 0
2020-03-26 13:07:48 GMT 55.573689 40.646927 31,000 100 455 0
2020-03-26 13:07:43 GMT 55.575531 40.628441 31,000 100 455 0
2020-03-26 13:07:38 GMT 55.577366 40.610359 31,000 100 456 0
2020-03-26 13:07:33 GMT 55.579239 40.591988 31,000 100 456 0
2020-03-26 13:07:29 GMT 55.581230 40.571995 31,000 100 456 0
2020-03-26 13:07:20 GMT 55.584320 40.541134 31,000 99 455 0
2020-03-26 13:07:17 GMT 55.585094 40.533714 31,000 99 455 0
2020-03-26 13:07:10 GMT 55.587982 40.504444 31,000 99 455 0
2020-03-26 13:07:07 GMT 55.588760 40.496605 31,000 99 455 0
2020-03-26 13:07:03 GMT 55.590401 40.480328 31,000 99 455 0
2020-03-26 13:06:58 GMT 55.592056 40.463730 31,000 99 455 0
2020-03-26 13:06:52 GMT 55.594208 40.441757 31,000 99 455 0
2020-03-26 13:06:48 GMT 55.595802 40.425484 31,000 99 455 0
2020-03-26 13:06:42 GMT 55.597851 40.404625 31,000 99 455 0
2020-03-26 13:06:37 GMT 55.599609 40.386906 31,000 99 455 0
2020-03-26 13:06:32 GMT 55.601761 40.364601 31,000 99 455 0
2020-03-26 13:06:27 GMT 55.603409 40.347790 31,000 99 455 0
2020-03-26 13:06:20 GMT 55.605484 40.326778 31,000 99 455 0
2020-03-26 13:06:16 GMT 55.607162 40.309753 31,000 99 455 0
2020-03-26 13:06:10 GMT 55.609222 40.288944 31,000 99 455 0
2020-03-26 13:06:06 GMT 55.610870 40.272049 31,000 99 455 0
2020-03-26 13:06:00 GMT 55.612885 40.251415 31,000 99 455 0
2020-03-26 13:05:55 GMT 55.614609 40.233910 31,000 99 455 0
2020-03-26 13:05:51 GMT 55.616051 40.219231 31,000 99 454 0
2020-03-26 13:05:47 GMT 55.617775 40.201290 31,000 99 454 0
2020-03-26 13:05:40 GMT 55.620289 40.175713 31,000 99 454 0
2020-03-26 13:05:34 GMT 55.622059 40.157433 31,000 99 454 0
2020-03-26 13:05:29 GMT 55.624012 40.137691 31,000 99 454 0
2020-03-26 13:05:25 GMT 55.625290 40.124401 31,000 99 454 0
2020-03-26 13:05:21 GMT 55.627689 40.099323 31,000 99 454 0
2020-03-26 13:05:15 GMT 55.628952 40.086697 31,000 99 454 0
2020-03-26 13:05:12 GMT 55.629822 40.077625 31,000 99 454 0
2020-03-26 13:05:08 GMT 55.631275 40.062420 31,000 99 454 0
2020-03-26 13:05:05 GMT 55.632252 40.052547 31,000 99 454 0
2020-03-26 13:05:02 GMT 55.633347 40.041420 31,000 99 454 0
2020-03-26 13:04:57 GMT 55.635040 40.023857 31,000 99 454 0
2020-03-26 13:04:53 GMT 55.637001 40.003281 31,000 99 454 0
2020-03-26 13:04:48 GMT 55.638702 39.985573 31,000 99 454 0
2020-03-26 13:04:45 GMT 55.639561 39.976585 31,000 99 454 0
2020-03-26 13:04:41 GMT 55.640671 39.965099 31,000 99 454 0
2020-03-26 13:04:37 GMT 55.642227 39.948704 31,000 99 454 0
2020-03-26 13:04:32 GMT 55.644424 39.925980 31,000 99 454 0
2020-03-26 13:04:29 GMT 55.644913 39.920712 31,000 99 454 0
2020-03-26 13:04:24 GMT 55.646961 39.899166 31,000 99 453 0
2020-03-26 13:04:19 GMT 55.648590 39.882202 31,000 99 453 0
2020-03-26 13:04:14 GMT 55.650421 39.862892 31,000 99 453 0
2020-03-26 13:04:09 GMT 55.652023 39.846081 31,000 99 453 0
2020-03-26 13:04:04 GMT 55.653667 39.828701 31,000 99 453 0
2020-03-26 13:03:59 GMT 55.655548 39.808876 31,000 99 453 0
2020-03-26 13:03:54 GMT 55.657150 39.792065 31,000 99 453 0
2020-03-26 13:03:49 GMT 55.659161 39.770763 31,000 99 453 0
2020-03-26 13:03:44 GMT 55.660950 39.751949 31,000 99 453 0
2020-03-26 13:03:38 GMT 55.662556 39.734631 31,000 99 453 0
2020-03-26 13:03:33 GMT 55.664467 39.714546 31,000 99 453 0
2020-03-26 13:03:28 GMT 55.666142 39.696262 31,000 99 453 0
2020-03-26 13:03:23 GMT 55.667679 39.680038 31,000 99 453 0
2020-03-26 13:03:18 GMT 55.672256 39.630764 31,000 99 453 0
2020-03-26 13:03:13 GMT 55.672256 39.630764 31,000 99 452 0
2020-03-26 13:03:07 GMT 55.673264 39.619862 31,000 99 452 0
2020-03-26 13:03:03 GMT 55.674774 39.603382 31,000 99 453 0
2020-03-26 13:02:57 GMT 55.676697 39.582577 31,000 99 453 0
2020-03-26 13:02:50 GMT 55.679501 39.551640 31,000 99 453 0
2020-03-26 13:02:47 GMT 55.680202 39.544003 31,000 99 453 0
2020-03-26 13:02:43 GMT 55.681412 39.530785 31,000 99 453 0
2020-03-26 13:02:37 GMT 55.684902 39.492760 31,000 99 453 0
2020-03-26 13:02:33 GMT 55.684902 39.492760 31,000 99 453 0
2020-03-26 13:02:28 GMT 55.686531 39.474480 31,000 99 453 0
2020-03-26 13:02:25 GMT 55.687271 39.466637 31,000 99 453 0
2020-03-26 13:02:22 GMT 55.688438 39.453621 31,000 99 453 0
2020-03-26 13:02:17 GMT 55.690022 39.436028 31,000 99 453 0
2020-03-26 13:02:14 GMT 55.690907 39.426498 31,000 99 453 0
2020-03-26 13:02:11 GMT 55.691895 39.415367 31,000 98 454 0
2020-03-26 13:02:05 GMT 55.695007 39.380493 31,000 99 454 0
2020-03-26 13:02:02 GMT 55.696930 39.359604 31,000 99 454 0
2020-03-26 13:01:56 GMT 55.696930 39.359604 31,000 94 454 0
2020-03-26 13:01:52 GMT 55.698257 39.343456 31,000 94 453 0
2020-03-26 13:01:45 GMT 55.699722 39.320568 31,000 95 453 0
2020-03-26 13:01:42 GMT 55.700451 39.305222 31,000 92 454 0
2020-03-26 13:01:35 GMT 55.701008 39.283764 31,000 90 454 -64
2020-03-26 13:01:31 GMT 55.701103 39.266254 31,000 90 454 -64
2020-03-26 13:01:28 GMT 55.701187 39.250904 31,000 90 454 256
2020-03-26 13:01:24 GMT 55.701290 39.229176 30,925 90 453 960
2020-03-26 13:01:21 GMT 55.701290 39.229176 30,950 90 453 960
2020-03-26 13:01:15 GMT 55.701370 39.206795 30,875 90 453 960
2020-03-26 13:01:11 GMT 55.701427 39.191750 30,775 90 453 960
2020-03-26 13:01:04 GMT 55.701508 39.167591 30,675 90 452 960
2020-03-26 13:01:01 GMT 55.701645 39.129139 30,600 90 452 960
2020-03-26 13:00:53 GMT 55.701645 39.129139 30,525 90 451 896
2020-03-26 13:00:49 GMT 55.701736 39.108498 30,450 90 451 896
2020-03-26 13:00:43 GMT 55.701782 39.090103 30,375 90 450 832
2020-03-26 13:00:40 GMT 55.701828 39.079117 30,325 90 450 896
2020-03-26 13:00:37 GMT 55.701847 39.069698 30,275 90 449 960
2020-03-26 13:00:33 GMT 55.701874 39.052982 30,200 90 449 1408
2020-03-26 13:00:30 GMT 55.701893 39.041119 30,125 90 449 1920
2020-03-26 13:00:26 GMT 55.701942 39.025669 29,975 90 449 2240
2020-03-26 13:00:23 GMT 55.701942 39.014683 29,850 90 450 2304
2020-03-26 13:00:20 GMT 55.701942 39.003613 29,725 90 450 2304
2020-03-26 13:00:14 GMT 55.701965 38.984322 29,525 90 452 2432
2020-03-26 13:00:10 GMT 55.701988 38.966446 29,325 90 453 2496
2020-03-26 13:00:06 GMT 55.702034 38.949020 29,125 90 455 2624
2020-03-26 13:00:02 GMT 55.702057 38.938046 27,550 90 461 1984
2020-03-26 12:59:59 GMT 55.702034 38.927822 28,875 90 456 2688
2020-03-26 12:59:55 GMT 55.702057 38.914989 28,725 90 457 2688
2020-03-26 12:59:52 GMT 55.702080 38.899498 28,550 90 458 2624
2020-03-26 12:59:49 GMT 55.702103 38.888439 28,400 90 459 2624
2020-03-26 12:59:44 GMT 55.702171 38.870659 28,200 90 460 2496
2020-03-26 12:59:38 GMT 55.702171 38.849545 28,000 90 461 1920
2020-03-26 12:59:34 GMT 55.702267 38.833752 27,875 91 461 1792
2020-03-26 12:59:31 GMT 55.702469 38.821522 27,550 93 460 1792
2020-03-26 12:59:28 GMT 55.702927 38.807957 27,650 93 461 1792
2020-03-26 12:59:23 GMT 55.703522 38.792381 27,525 93 460 1792
2020-03-26 12:59:20 GMT 55.703941 38.782253 27,375 93 460 1856
2020-03-26 12:59:16 GMT 55.704453 38.769119 27,375 93 460 1856
2020-03-26 12:59:13 GMT 55.705013 38.754871 27,225 93 460 1792
2020-03-26 12:59:10 GMT 55.705444 38.743034 27,075 93 459 1856
2020-03-26 12:59:07 GMT 55.705944 38.730152 27,025 93 459 1856
2020-03-26 12:59:00 GMT 55.707001 38.703751 26,800 93 458 1728
2020-03-26 12:58:57 GMT 55.707184 38.698177 26,775 93 458 1728
2020-03-26 12:58:53 GMT 55.707993 38.677795 26,600 93 457 1856
2020-03-26 12:58:49 GMT 55.708458 38.665092 26,450 93 457 1792
2020-03-26 12:58:46 GMT 55.708969 38.651707 26,400 93 455 1728
2020-03-26 12:58:42 GMT 55.709389 38.640549 25,950 93 454 1600
2020-03-26 12:58:39 GMT 55.709946 38.626125 26,200 93 454 1600
2020-03-26 12:58:35 GMT 55.710617 38.608456 26,075 93 453 1792
2020-03-26 12:58:31 GMT 55.710880 38.601234 26,025 93 452 1792
2020-03-26 12:58:28 GMT 55.711441 38.585899 25,875 93 451 1664
2020-03-26 12:58:25 GMT 55.711857 38.575058 25,825 93 451 1536
2020-03-26 12:58:22 GMT 55.712231 38.564671 25,750 93 450 1536
2020-03-26 12:58:17 GMT 55.712975 38.545616 25,625 93 450 1792
2020-03-26 12:58:14 GMT 55.713318 38.536629 25,525 93 449 1792
2020-03-26 12:58:11 GMT 55.713673 38.527679 25,325 93 448 1792
2020-03-26 12:58:07 GMT 55.714321 38.510082 25,250 93 448 1792
2020-03-26 12:58:02 GMT 55.715069 38.490429 25,150 93 447 1792
2020-03-26 12:57:59 GMT 55.715836 38.470127 22,850 99 432 2112
2020-03-26 12:57:56 GMT 55.715836 38.470127 24,925 93 445 1856
2020-03-26 12:57:53 GMT 55.716248 38.459225 24,875 93 445 1920
2020-03-26 12:57:50 GMT 55.716797 38.445492 23,700 123 415 384
2020-03-26 12:57:46 GMT 55.717304 38.432236 24,600 93 443 1920
2020-03-26 12:57:42 GMT 55.717674 38.421421 24,550 93 443 1920
2020-03-26 12:57:39 GMT 55.718327 38.404427 24,400 93 441 1792
2020-03-26 12:57:35 GMT 55.718887 38.390007 24,275 93 439 1856
2020-03-26 12:57:32 GMT 55.719303 38.379276 24,200 93 439 1856
2020-03-26 12:57:25 GMT 55.720093 38.358681 24,025 93 438 1920
2020-03-26 12:57:20 GMT 55.720654 38.343060 23,875 93 437 1920
2020-03-26 12:57:17 GMT 55.721100 38.330799 23,725 93 435 1856
2020-03-26 12:57:14 GMT 55.721539 38.319111 22,550 114 424 576
2020-03-26 12:57:11 GMT 55.722004 38.305981 23,550 93 434 1856
2020-03-26 12:57:08 GMT 55.722382 38.294094 23,425 93 433 1920
2020-03-26 12:57:04 GMT 55.722794 38.279945 23,300 93 433 2048
2020-03-26 12:57:00 GMT 55.723122 38.269157 23,225 94 433 2112
2020-03-26 12:56:57 GMT 55.723541 38.258945 22,975 96 433 2048
2020-03-26 12:56:54 GMT 55.724380 38.246326 22,975 99 432 2112
2020-03-26 12:56:50 GMT 55.725449 38.233921 22,850 102 431 2048
2020-03-26 12:56:45 GMT 55.728058 38.213696 22,525 109 429 896
2020-03-26 12:56:39 GMT 55.730667 38.199295 22,550 115 422 640
2020-03-26 12:56:35 GMT 55.736618 38.173996 22,525 117 420 704
2020-03-26 12:56:28 GMT 55.740578 38.160927 22,475 121 417 512
2020-03-26 12:56:24 GMT 55.744816 38.149166 22,400 127 402 512
2020-03-26 12:56:21 GMT 55.747055 38.143532 22,400 127 402 512
2020-03-26 12:56:18 GMT 55.750580 38.135208 22,325 127 396 512
2020-03-26 12:56:15 GMT 55.753799 38.127708 22,375 127 403 512
2020-03-26 12:56:11 GMT 55.759480 38.114662 22,350 127 397 512
2020-03-26 12:56:07 GMT 55.763390 38.105652 22,325 127 392 512
2020-03-26 12:56:03 GMT 55.768433 38.094093 22,275 127 388 512
2020-03-26 12:55:58 GMT 55.778366 38.071373 22,100 127 372 832
2020-03-26 12:55:54 GMT 55.778366 38.071373 22,225 127 380 640
2020-03-26 12:55:51 GMT 55.780380 38.066711 22,150 127 375 768
2020-03-26 12:55:48 GMT 55.783825 38.058784 22,100 127 370 896
2020-03-26 12:55:45 GMT 55.786926 38.051647 22,075 127 368 896
2020-03-26 12:55:42 GMT 55.790405 38.043739 22,050 127 368 896
2020-03-26 12:55:39 GMT 55.793976 38.035416 21,975 127 364 1024
2020-03-26 12:55:36 GMT 55.796162 38.030293 21,875 126 360 1152
2020-03-26 12:55:32 GMT 55.800522 38.019936 21,725 126 357 1344
2020-03-26 12:55:26 GMT 55.806263 38.006084 21,750 125 354 1536
2020-03-26 12:55:23 GMT 55.811554 37.992802 21,625 125 352 1728
2020-03-26 12:55:20 GMT 55.811554 37.992802 21,025 125 347 2304
2020-03-26 12:55:17 GMT 55.815399 37.983150 21,425 125 349 1920
2020-03-26 12:55:10 GMT 55.820881 37.969608 21,250 125 347 2560
2020-03-26 12:55:07 GMT 55.826752 37.954849 20,875 125 347 3200
2020-03-26 12:55:00 GMT 55.830006 37.946861 20,600 125 349 3392
2020-03-26 12:54:56 GMT 55.839661 37.922642 20,300 125 350 2816
2020-03-26 12:54:51 GMT 55.839661 37.922642 20,150 125 350 2816
2020-03-26 12:54:47 GMT 55.843506 37.913071 19,975 126 350 2624
2020-03-26 12:54:44 GMT 55.845928 37.907124 19,850 126 350 2624
2020-03-26 12:54:40 GMT 55.850208 37.896652 19,650 126 349 2880
2020-03-26 12:54:35 GMT 55.854446 37.886608 19,425 127 349 3072
2020-03-26 12:54:32 GMT 55.857285 37.880001 19,275 129 353 3072
2020-03-26 12:54:29 GMT 55.859802 37.874203 18,775 128 350 3648
2020-03-26 12:54:26 GMT 55.866440 37.859303 18,875 128 352 3584
2020-03-26 12:54:19 GMT 55.872276 37.846615 18,600 129 353 2944
2020-03-26 12:54:16 GMT 55.874313 37.842239 18,450 130 351 2176
2020-03-26 12:54:13 GMT 55.877563 37.835415 18,275 130 349 2176
2020-03-26 12:54:10 GMT 55.879120 37.832169 18,225 130 348 2176
2020-03-26 12:54:07 GMT 55.882141 37.825844 18,125 129 346 2240
2020-03-26 12:54:04 GMT 55.885529 37.818604 17,900 126 344 2944
2020-03-26 12:54:00 GMT 55.893448 37.799877 17,600 125 344 3840
2020-03-26 12:53:56 GMT 55.893448 37.799877 17,400 124 344 4032
2020-03-26 12:53:53 GMT 55.896744 37.791470 17,300 121 346 4032
2020-03-26 12:53:50 GMT 55.898949 37.785332 17,125 120 347 4032
2020-03-26 12:53:45 GMT 55.903198 37.771996 16,875 117 348 3776
2020-03-26 12:53:42 GMT 55.905029 37.765587 16,625 115 350 3456
2020-03-26 12:53:39 GMT 55.906864 37.758720 16,250 106 343 2432
2020-03-26 12:53:36 GMT 55.909424 37.748425 16,350 111 348 2176
2020-03-26 12:53:32 GMT 55.911427 37.739326 16,200 108 345 2176
2020-03-26 12:53:29 GMT 55.913055 37.730911 16,150 107 344 2240
2020-03-26 12:53:25 GMT 55.914963 37.720097 15,875 108 344 2880
2020-03-26 12:53:21 GMT 55.916409 37.711258 14,875 106 341 3648
2020-03-26 12:53:18 GMT 55.917709 37.703445 15,600 106 341 3456
2020-03-26 12:53:15 GMT 55.919292 37.694008 15,275 107 343 4096
2020-03-26 12:53:12 GMT 55.920959 37.684189 15,150 107 344 3840
2020-03-26 12:53:09 GMT 55.922241 37.677197 15,000 108 344 3008
2020-03-26 12:53:06 GMT 55.923576 37.670059 14,275 107 333 2432
2020-03-26 12:53:02 GMT 55.926224 37.657555 14,775 111 342 1920
2020-03-26 12:52:59 GMT 55.927719 37.650921 14,625 110 336 2176
2020-03-26 12:52:56 GMT 55.929749 37.641159 14,475 101 331 3136
2020-03-26 12:52:53 GMT 55.930931 37.634697 14,225 101 331 3136
2020-03-26 12:52:49 GMT 55.932468 37.624397 13,925 98 331 3456
2020-03-26 12:52:44 GMT 55.933685 37.611942 13,775 92 331 3968
2020-03-26 12:52:41 GMT 55.934280 37.601376 13,650 91 331 3904
2020-03-26 12:52:37 GMT 55.934422 37.591698 13,425 86 330 3392
2020-03-26 12:52:34 GMT 55.934189 37.583397 13,275 81 328 2624
2020-03-26 12:52:31 GMT 55.933537 37.575214 13,175 68 317 1664
2020-03-26 12:52:28 GMT 55.932838 37.569206 13,125 75 323 1984
2020-03-26 12:52:24 GMT 55.930893 37.558010 13,000 67 316 1728
2020-03-26 12:52:20 GMT 55.928139 37.547066 12,800 62 310 2624
2020-03-26 12:52:14 GMT 55.924438 37.534874 12,525 60 308 3008
2020-03-26 12:52:10 GMT 55.921947 37.527065 12,350 60 307 3136
2020-03-26 12:52:04 GMT 55.914639 37.504833 11,300 58 306 3136
2020-03-26 12:52:00 GMT 55.914639 37.504833 11,675 58 306 3392
2020-03-26 12:51:57 GMT 55.911850 37.496838 11,575 58 306 3136
2020-03-26 12:51:53 GMT 55.909195 37.489098 11,350 57 305 0
2020-03-26 12:51:50 GMT 55.907284 37.483723 11,250 57 302 1984
2020-03-26 12:51:47 GMT 55.903839 37.474117 10,975 57 299 1856
2020-03-26 12:51:42 GMT 55.900726 37.465462 11,000 57 294 2304
2020-03-26 12:51:36 GMT 55.896763 37.454453 10,800 56 292 2432
2020-03-26 12:51:33 GMT 55.894135 37.447315 10,650 56 291 2496
2020-03-26 12:51:30 GMT 55.891846 37.441158 10,500 56 289 2816
2020-03-26 12:51:27 GMT 55.890060 37.436413 10,400 55 289 2880
2020-03-26 12:51:23 GMT 55.886475 37.426903 10,150 55 287 2944
2020-03-26 12:51:20 GMT 55.883678 37.419605 9,525 56 287 3264
2020-03-26 12:51:15 GMT 55.881168 37.412910 9,800 58 288 2560
2020-03-26 12:51:12 GMT 55.877071 37.401237 9,575 59 287 2496
2020-03-26 12:51:06 GMT 55.874371 37.393169 9,375 56 284 2496
2020-03-26 12:51:01 GMT 55.871017 37.383987 9,150 53 282 3200
2020-03-26 12:50:55 GMT 55.866364 37.373428 8,450 43 280 3392
2020-03-26 12:50:51 GMT 55.862183 37.365501 8,475 44 281 3776
2020-03-26 12:50:48 GMT 55.860172 37.362015 8,350 44 280 3264
2020-03-26 12:50:45 GMT 55.857285 37.357178 8,025 54 281 1600
2020-03-26 12:50:41 GMT 55.854218 37.351517 8,075 52 281 1792
2020-03-26 12:50:38 GMT 55.848255 37.336433 7,975 58 281 1408
2020-03-26 12:50:34 GMT 55.848255 37.336433 7,875 67 282 1472
2020-03-26 12:50:30 GMT 55.845016 37.322056 7,750 74 283 1536
2020-03-26 12:50:24 GMT 55.844063 37.314465 7,625 81 283 1472
2020-03-26 12:50:21 GMT 55.843552 37.308571 7,525 90 282 1152
2020-03-26 12:50:18 GMT 55.843323 37.301579 7,525 90 282 1152
2020-03-26 12:50:12 GMT 55.843784 37.289143 7,425 100 279 960
2020-03-26 12:50:09 GMT 55.844925 37.279942 7,250 107 275 2176
2020-03-26 12:50:03 GMT 55.846664 37.270035 7,100 109 274 2816
2020-03-26 12:49:58 GMT 55.849419 37.257557 6,725 114 277 3904
2020-03-26 12:49:55 GMT 55.851421 37.250175 6,425 118 281 3648
2020-03-26 12:49:47 GMT 55.856094 37.235661 6,100 126 285 2944
2020-03-26 12:49:44 GMT 55.858498 37.229748 5,975 132 285 2112
2020-03-26 12:49:38 GMT 55.864655 37.219185 5,825 146 278 1152
2020-03-26 12:49:34 GMT 55.869141 37.213856 5,725 153 273 1856
2020-03-26 12:49:27 GMT 55.875813 37.208717 5,575 161 270 2496
2020-03-26 12:49:23 GMT 55.880356 37.206532 5,325 170 268 3200
2020-03-26 12:49:18 GMT 55.886902 37.205284 4,825 240 220 320
2020-03-26 12:49:13 GMT 55.893127 37.205948 4,775 193 265 2816
2020-03-26 12:49:08 GMT 55.899261 37.208530 4,425 240 227 1280
2020-03-26 12:49:02 GMT 55.905514 37.213528 4,400 214 252 1536
2020-03-26 12:48:58 GMT 55.909935 37.218761 4,275 221 247 1728
2020-03-26 12:48:52 GMT 55.918259 37.233997 3,975 240 229 1408
2020-03-26 12:48:47 GMT 55.918259 37.233997 4,000 238 231 1344
2020-03-26 12:48:42 GMT 55.921097 37.242237 3,900 240 224 704
2020-03-26 12:48:37 GMT 55.923576 37.249744 3,875 240 216 384
2020-03-26 12:48:32 GMT 55.926270 37.257885 3,825 240 207 960
2020-03-26 12:48:27 GMT 55.928696 37.265369 3,750 240 202 448
2020-03-26 12:48:24 GMT 55.930046 37.269485 3,750 240 193 1024
2020-03-26 12:48:21 GMT 55.931488 37.273865 3,450 240 180 1408
2020-03-26 12:48:17 GMT 55.933491 37.280045 3,650 240 189 1280
2020-03-26 12:48:10 GMT 55.936657 37.289742 3,450 240 180 1408
2020-03-26 12:48:06 GMT 55.938099 37.294121 3,350 241 177 1856
2020-03-26 12:48:01 GMT 55.940010 37.300041 3,225 241 176 1984
2020-03-26 12:47:56 GMT 55.942104 37.306564 3,025 239 175 1664
2020-03-26 12:47:49 GMT 55.944805 37.314465 2,850 240 173 1920
2020-03-26 12:47:46 GMT 55.946182 37.318810 2,725 241 171 2176
2020-03-26 12:47:40 GMT 55.948437 37.325966 2,525 237 175 2176
2020-03-26 12:47:36 GMT 55.950531 37.331543 2,400 232 176 1856
2020-03-26 12:47:25 GMT 55.956024 37.342442 2,025 240 168 1984
2020-03-26 12:47:14 GMT 55.960865 37.355232 1,675 249 168 1920
2020-03-26 12:47:10 GMT 55.962250 37.362003 1,500 253 166 1920
2020-03-26 12:47:05 GMT 55.963074 37.366585 1,400 253 164 1600
We lost coverage of the aircraft here for a total of 5 minutes
2020-03-26 12:41:48 GMT 55.977310 37.441212 0 165 8
2020-03-26 12:41:30 GMT 55.978054 37.440868 0 163 15
2020-03-26 12:40:59 GMT 55.980057 37.439903 0 165 13
2020-03-26 12:40:02 GMT 55.979847 37.433811 0 75 16
2020-03-26 12:39:59 GMT 55.979805 37.433582 0 75 15
2020-03-26 12:39:44 GMT 55.979519 37.431599 0 73 16
2020-03-26 12:39:34 GMT 55.979359 37.430508 0 73 16
2020-03-26 12:39:27 GMT 55.979221 37.429630 0 75 14
2020-03-26 12:39:02 GMT 55.978786 37.427402 0 16 11
2020-03-26 12:38:56 GMT 55.978569 37.427341 0 348 10
2020-03-26 12:38:47 GMT 55.978168 37.427502 0 348 11
2020-03-26 12:38:32 GMT 55.977562 37.427010 0 73 14
2020-03-26 12:38:27 GMT 55.977470 37.426342 0 73 16
2020-03-26 12:38:17 GMT 55.977299 37.425205 0 75 15
2020-03-26 12:38:06 GMT 55.977127 37.424030 0 73 14
2020-03-26 12:37:54 GMT 55.976944 37.422783 0 73 12
2020-03-26 12:36:38 GMT 55.977322 37.421139 0 157 6
2020-03-26 12:35:55 GMT 55.977100 37.417805 0 73 11
2020-03-26 12:35:28 GMT 55.976994 37.416065 0 149 7
2020-03-26 12:35:16 GMT 55.977367 37.415829 0 165 8
2020-03-26 12:35:12 GMT 55.977551 37.415752 0 165 8
2020-03-26 12:35:02 GMT 55.977867 37.415592 0 165 9
2020-03-26 12:34:45 GMT 55.978485 37.415314 0 165 8
2020-03-26 12:34:41 GMT 55.978600 37.415249 0 165 8
2020-03-26 12:34:32 GMT 55.978951 37.415077 0 165 7
2020-03-26 12:34:21 GMT 55.979256 37.414940 0 165 6
2020-03-26 12:33:55 GMT 55.979725 37.414711 0 165 3
2020-03-26 12:33:40 GMT 55.979839 37.414646 0 165 2
2020-03-26 12:29:41 GMT 55.980000 37.414585 0 168 1
2020-03-26 12:29:28 GMT 55.980080 37.414543 0 168 2
2020-03-26 12:29:21 GMT 55.980125 37.414539 0 168 2
2020-03-26 12:29:14 GMT 55.980183 37.414520 0 165 2
2020-03-26 12:29:03 GMT 55.980251 37.414501 0 160 2
2020-03-26 12:28:53 GMT 55.980331 37.414482 0 146 2
2020-03-26 12:28:42 GMT 55.980389 37.414440 0 129 0
2020-03-26 12:28:32 GMT 55.980434 37.414398 0 112 0
2020-03-26 12:28:22 GMT 55.980450 37.414326 0 101 0
2020-03-26 12:28:12 GMT 55.980461 37.414261 0 90 0
2020-03-26 12:28:01 GMT 55.980473 37.414154 0 78 1
2020-03-26 12:27:52 GMT 55.980469 37.414066 0 75 1
2020-03-26 12:27:40 GMT 55.980457 37.413960 0 70 1
2020-03-26 12:27:30 GMT 55.980488 37.413918 0 70 0
2020-03-26 12:27:19 GMT 55.980457 37.413940 0 70 2
2020-03-26 12:27:09 GMT 55.980473 37.414154 0 78 3
2020-03-26 12:26:57 GMT 55.980511 37.414413 0 78 3
2020-03-26 12:26:49 GMT 55.980537 37.414604 0 73 3
2020-03-26 12:26:34 GMT 55.980614 37.414928 0 70 3

Making use of Plane Finder data

You are free to use the raw flight data, aircraft information and images provided in this report for your own purposes provided the data is correctly attributed to Plane Finder. We ask that you please credit Plane Finder and link to planefinder.net in close proximity to the content.

Optionally one of the following logos (no smaller then 150x24px) can be used and must link to planefinder.net

Embedding the Plane Finder map

You are welcome to embed the Plane Finder playback map on your website to offer visitors a more interactive experience. We suggest using the following HTML code:

<iframe src="//planefinder.net/data/report/SU1248-VP-BRF-7700-squawk-2020-03-26/map" width="800" height="600" seamless="seamless"></iframe>

Where our data comes from

Plane Finder has a global network of data feeds and antenna radars that receive data broadcast directly from aircraft. The primary technologies used are ADS-B and MLAT. We also show feeds from the FAA and a FLARM glider feed.

Click here to find out more about the Plane Finder network.

How we collect our data